Time;durP1;ratioP1;P1;durP2;ratioP2;P2;SDS_P1;SDS_P2;PMS_P1;PMS_P2;Temp;Humidity;BMP_temperature;BMP_pressure;BME280_temperature;BME280_humidity;BME280_pressure;Samples;Min_cycle;Max_cycle;Signal;HPM_P1;HPM_P2
2020/12/13 00:00:46;;;;;;;62.80;30.08;;;;;;;3.67;87.55;99578.60;1693918;81;21235;-77
2020/12/13 00:03:12;;;;;;;61.30;29.93;;;;;;;3.71;87.49;99579.98;1697418;82;27291;-79
2020/12/13 00:05:38;;;;;;;56.87;29.93;;;;;;;3.72;87.29;99582.47;1676900;83;25577;-77
2020/12/13 00:08:04;;;;;;;64.87;31.12;;;;;;;3.72;87.60;99585.57;1687256;83;22247;-81
2020/12/13 00:10:30;;;;;;;61.53;31.27;;;;;;;3.75;87.58;99582.22;1689512;83;25879;-78
2020/12/13 00:12:55;;;;;;;66.90;32.10;;;;;;;3.78;87.45;99581.15;1694475;82;21824;-77
2020/12/13 00:15:21;;;;;;;62.98;30.88;;;;;;;3.82;87.39;99586.94;1695838;81;28395;-78
2020/12/13 00:17:47;;;;;;;60.88;31.37;;;;;;;3.76;87.45;99584.38;1674349;83;26857;-78
2020/12/13 00:20:13;;;;;;;68.97;32.93;;;;;;;3.75;87.47;99594.46;1695957;82;22236;-78
2020/12/13 00:22:39;;;;;;;61.57;31.90;;;;;;;3.77;87.39;99591.23;1691373;82;25460;-78
2020/12/13 00:25:04;;;;;;;66.47;30.23;;;;;;;3.83;87.30;99597.26;1695585;83;23759;-78
2020/12/13 00:27:30;;;;;;;64.82;30.17;;;;;;;3.83;87.16;99593.83;1695751;82;28384;-78
2020/12/13 00:29:56;;;;;;;57.05;29.57;;;;;;;3.85;87.10;99597.95;1691986;82;26868;-78
2020/12/13 00:32:30;;;;;;;64.47;30.05;;;;;;;3.91;87.05;99600.05;1692247;83;21869;-79
2020/12/13 00:34:58;;;;;;;63.75;30.90;;;;;;;3.90;86.97;99602.34;1686289;83;21627;-79
2020/12/13 00:37:25;;;;;;;60.45;31.07;;;;;;;3.86;87.22;99604.84;1695383;83;21542;-77
2020/12/13 00:39:51;;;;;;;64.90;31.10;;;;;;;3.91;87.05;99597.45;1691916;82;21211;-78
2020/12/13 00:42:16;;;;;;;62.85;30.43;;;;;;;3.92;87.09;99604.34;1695598;83;26782;-77
2020/12/13 00:44:42;;;;;;;58.15;30.85;;;;;;;3.93;86.94;99602.55;1679006;82;21995;-77
2020/12/13 00:47:08;;;;;;;64.30;31.70;;;;;;;3.84;87.07;99606.77;1697259;82;27505;-77
2020/12/13 00:49:34;;;;;;;65.17;30.97;;;;;;;3.82;87.25;99608.66;1706832;82;23014;-79
2020/12/13 00:52:04;;;;;;;62.23;29.95;;;;;;;3.86;87.17;99608.77;1704441;82;21652;-78
2020/12/13 00:54:30;;;;;;;65.62;31.70;;;;;;;3.93;87.11;99607.31;1692652;83;21156;-78
2020/12/13 00:56:55;;;;;;;56.30;29.57;;;;;;;3.95;86.94;99615.02;1683513;83;21399;-78
2020/12/13 00:59:21;;;;;;;56.57;30.23;;;;;;;3.95;86.86;99608.00;1687243;82;25512;-78
2020/12/13 01:01:47;;;;;;;57.63;30.37;;;;;;;3.97;86.84;99608.36;1696866;81;20958;-78
2020/12/13 01:04:13;;;;;;;60.83;31.05;;;;;;;4.01;86.94;99607.13;1687028;82;28790;-78
2020/12/13 01:06:38;;;;;;;55.05;30.00;;;;;;;4.03;86.62;99605.24;1698540;82;26833;-78
2020/12/13 01:09:04;;;;;;;68.60;29.60;;;;;;;4.06;86.56;99612.83;1688538;83;21177;-79
2020/12/13 01:11:32;;;;;;;56.50;30.47;;;;;;;4.11;86.51;99613.27;1693040;82;26862;-77
2020/12/13 01:13:58;;;;;;;;;;;;;;;4.03;86.44;99613.08;1707519;82;21188;-78
2020/12/13 01:16:24;;;;;;;57.80;27.10;;;;;;;3.98;86.58;99608.69;1705895;82;28463;-77
2020/12/13 01:18:50;;;;;;;61.30;28.42;;;;;;;3.95;86.60;99614.53;1700902;83;21240;-77
2020/12/13 01:21:27;;;;;;;55.40;29.10;;;;;;;3.93;86.77;99619.06;1663867;83;21232;-78
2020/12/13 01:23:52;;;;;;;59.07;27.80;;;;;;;3.85;86.80;99617.55;1696578;82;21983;-77
2020/12/13 01:26:19;;;;;;;53.13;29.10;;;;;;;3.88;86.99;99613.37;1699204;82;25696;-78
2020/12/13 01:28:45;;;;;;;61.37;28.05;;;;;;;3.82;87.17;99620.41;1704344;81;21327;-80
2020/12/13 01:31:16;;;;;;;51.95;28.25;;;;;;;3.83;87.16;99618.16;1709081;82;27251;-77
2020/12/13 01:33:43;;;;;;;57.03;28.50;;;;;;;3.78;87.42;99620.33;1681475;83;22104;-78
2020/12/13 01:36:18;;;;;;;51.98;28.12;;;;;;;3.67;87.73;99624.30;1690085;83;21168;-80
2020/12/13 01:38:44;;;;;;;53.85;29.23;;;;;;;3.72;87.87;99626.05;1690779;82;21160;-76
2020/12/13 01:41:09;;;;;;;49.73;26.68;;;;;;;3.78;87.73;99628.16;1706001;82;28924;-77
2020/12/13 01:43:36;;;;;;;48.28;27.48;;;;;;;3.79;87.72;99628.48;1697792;82;27283;-77
2020/12/13 01:46:01;;;;;;;54.95;28.35;;;;;;;3.81;87.77;99622.69;1698829;82;22179;-76
2020/12/13 01:48:28;;;;;;;53.43;29.23;;;;;;;3.85;87.56;99631.91;1693403;83;26142;-76
2020/12/13 01:53:24;;;;;;;60.38;28.07;;;;;;;3.89;87.59;99625.48;1688522;81;28341;-76
2020/12/13 01:55:51;;;;;;;51.55;28.47;;;;;;;3.84;87.60;99632.88;1688739;82;21211;-76
2020/12/13 01:58:21;;;;;;;60.23;29.10;;;;;;;3.84;87.94;99625.05;1666263;83;22129;-76
2020/12/13 02:00:48;;;;;;;50.95;28.32;;;;;;;3.85;87.91;99629.78;1690944;81;21670;-77
2020/12/13 02:03:21;;;;;;;57.58;28.45;;;;;;;3.83;88.07;99628.60;1698040;82;21109;-78
2020/12/13 02:05:51;;;;;;;55.25;29.00;;;;;;;3.86;88.03;99628.35;1681694;83;21201;-78
2020/12/13 02:08:21;;;;;;;49.75;26.75;;;;;;;3.88;87.96;99628.23;1681378;83;21290;-77
2020/12/13 02:10:47;;;;;;;52.23;27.00;;;;;;;3.85;87.92;99626.68;1697721;83;21292;-76
2020/12/13 02:13:13;;;;;;;46.43;26.80;;;;;;;3.83;88.08;99631.21;1690143;83;26415;-77
2020/12/13 02:15:38;;;;;;;51.73;25.97;;;;;;;3.86;88.17;99636.19;1703059;82;23344;-77
2020/12/13 02:18:04;;;;;;;47.23;25.48;;;;;;;3.90;88.08;99634.14;1685874;83;28827;-76
2020/12/13 02:20:30;;;;;;;44.70;25.05;;;;;;;3.86;88.18;99627.53;1684103;83;26719;-77
2020/12/13 02:22:55;;;;;;;50.00;25.70;;;;;;;3.90;88.41;99631.53;1692118;83;21372;-77
2020/12/13 02:25:22;;;;;;;48.53;25.30;;;;;;;3.94;88.30;99636.38;1697904;83;27466;-77
2020/12/13 02:27:49;;;;;;;44.60;24.32;;;;;;;3.97;88.09;99633.18;1688818;81;21296;-77
2020/12/13 02:30:14;;;;;;;49.83;25.05;;;;;;;4.05;88.15;99631.57;1697683;82;21236;-78
2020/12/13 02:32:40;;;;;;;51.35;26.60;;;;;;;4.02;87.71;99631.01;1707077;82;27340;-77
2020/12/13 02:35:07;;;;;;;45.95;23.73;;;;;;;4.01;87.80;99634.56;1683358;83;22190;-77
2020/12/13 02:37:33;;;;;;;41.23;22.20;;;;;;;4.04;87.87;99633.01;1687953;82;21429;-77
2020/12/13 02:39:59;;;;;;;38.47;21.57;;;;;;;3.99;87.70;99632.56;1702614;82;22812;-78
2020/12/13 02:42:24;;;;;;;33.88;20.25;;;;;;;3.97;87.61;99631.88;1693991;81;28371;-77
2020/12/13 02:44:50;;;;;;;37.55;20.48;;;;;;;3.90;87.77;99633.69;1686989;82;27272;-78
2020/12/13 02:47:16;;;;;;;32.65;18.82;;;;;;;3.92;87.83;99640.91;1679948;82;21446;-79
2020/12/13 02:49:42;;;;;;;33.73;19.00;;;;;;;3.92;87.73;99639.60;1680812;83;26962;-77
2020/12/13 02:52:08;;;;;;;31.50;17.40;;;;;;;3.83;87.79;99640.84;1686614;83;23864;-78
2020/12/13 02:54:34;;;;;;;31.83;17.80;;;;;;;3.92;87.71;99646.62;1694798;83;21132;-77
2020/12/13 02:57:00;;;;;;;29.32;17.70;;;;;;;3.89;87.61;99643.77;1690164;81;26644;-77
2020/12/13 02:59:26;;;;;;;33.10;18.50;;;;;;;3.83;87.73;99650.80;1701263;82;21820;-78
2020/12/13 03:01:51;;;;;;;30.52;17.60;;;;;;;3.88;87.84;99649.94;1707589;82;27520;-78
2020/12/13 03:04:17;;;;;;;34.50;17.73;;;;;;;3.94;87.71;99654.66;1694209;82;21080;-77
2020/12/13 03:06:43;;;;;;;28.23;16.10;;;;;;;3.94;87.67;99658.58;1708028;82;28036;-78
2020/12/13 03:09:09;;;;;;;35.20;17.62;;;;;;;3.91;87.61;99647.08;1688744;82;27284;-78
2020/12/13 03:11:34;;;;;;;28.55;16.80;;;;;;;3.89;87.88;99658.63;1697227;81;22083;-78
2020/12/13 03:14:00;;;;;;;28.13;16.13;;;;;;;3.85;88.12;99659.33;1689108;83;26492;-78
2020/12/13 03:16:26;;;;;;;29.07;16.53;;;;;;;3.85;88.22;99660.64;1703459;82;22857;-77
2020/12/13 03:18:51;;;;;;;30.60;16.45;;;;;;;3.82;88.13;99662.68;1692404;83;28416;-77
2020/12/13 03:21:17;;;;;;;30.02;16.95;;;;;;;3.84;88.13;99669.45;1689589;83;27112;-77
2020/12/13 03:23:43;;;;;;;29.72;17.57;;;;;;;3.87;87.99;99663.97;1678479;82;21182;-77
2020/12/13 03:26:09;;;;;;;30.48;17.48;;;;;;;3.88;87.95;99667.41;1688010;83;25956;-77
2020/12/13 03:28:35;;;;;;;32.40;18.80;;;;;;;3.86;87.98;99671.45;1694440;82;22823;-77
2020/12/13 03:31:01;;;;;;;33.23;18.52;;;;;;;3.81;88.01;99674.92;1686191;82;21283;-78
2020/12/13 03:33:31;;;;;;;34.83;18.82;;;;;;;3.85;88.04;99678.92;1680485;82;26814;-78
2020/12/13 03:35:54;;;;;;;;;;;;;;;3.89;87.98;99684.26;1690481;83;21165;-78
2020/12/13 03:38:20;;;;;;;31.95;17.20;;;;;;;3.87;88.05;99690.09;1691751;82;20260;-77
2020/12/13 03:40:45;;;;;;;36.53;17.57;;;;;;;3.85;87.97;99691.98;1687232;82;25656;-77
2020/12/13 03:43:11;;;;;;;33.88;18.48;;;;;;;3.84;88.31;99694.26;1680724;83;28374;-78
2020/12/13 03:45:37;;;;;;;30.40;18.77;;;;;;;3.92;88.33;99687.93;1699625;82;27109;-78
2020/12/13 03:48:03;;;;;;;32.53;17.98;;;;;;;4.01;88.11;99690.73;1691075;82;21853;-78
2020/12/13 03:50:38;;;;;;;31.65;17.65;;;;;;;4.07;87.81;99691.54;1693064;83;21598;-77
2020/12/13 03:53:10;;;;;;;33.15;17.87;;;;;;;4.11;87.64;99690.34;1684643;83;21139;-77
2020/12/13 03:55:36;;;;;;;31.75;17.45;;;;;;;4.07;87.27;99687.63;1695203;82;21209;-76
2020/12/13 03:58:02;;;;;;;31.57;17.80;;;;;;;4.05;87.09;99686.44;1689633;82;21237;-79
2020/12/13 04:00:27;;;;;;;31.07;16.65;;;;;;;4.09;87.24;99685.73;1701076;82;21272;-76
2020/12/13 04:02:55;;;;;;;29.43;17.67;;;;;;;4.13;87.09;99688.42;1699569;82;27539;-77
2020/12/13 04:05:24;;;;;;;31.60;17.45;;;;;;;4.13;87.08;99684.05;1679986;83;21625;-79
2020/12/13 04:07:50;;;;;;;38.10;19.95;;;;;;;4.11;86.92;99687.73;1679507;84;21214;-76
2020/12/13 04:10:16;;;;;;;28.95;17.17;;;;;;;4.10;87.07;99692.59;1687061;83;21282;-77
2020/12/13 04:12:42;;;;;;;31.85;16.32;;;;;;;4.11;87.10;99697.70;1685402;83;21240;-77
2020/12/13 04:15:08;;;;;;;29.87;16.23;;;;;;;4.13;86.75;99704.10;1702670;81;27455;-79
2020/12/13 04:17:34;;;;;;;27.70;16.40;;;;;;;4.13;86.84;99701.49;1694913;82;21815;-76
2020/12/13 04:19:59;;;;;;;27.02;16.35;;;;;;;4.16;86.74;99701.24;1683905;83;28403;-77
2020/12/13 04:22:25;;;;;;;26.65;16.30;;;;;;;4.22;86.71;99702.05;1680688;83;26608;-77
2020/12/13 04:24:51;;;;;;;28.87;16.25;;;;;;;4.11;86.62;99697.70;1679602;83;22244;-78
2020/12/13 04:27:17;;;;;;;27.87;15.83;;;;;;;4.14;86.61;99701.85;1694051;81;27137;-79
2020/12/13 04:29:42;;;;;;;25.80;14.93;;;;;;;4.10;86.61;99703.05;1698592;82;24795;-77
2020/12/13 04:32:10;;;;;;;28.75;15.78;;;;;;;4.11;86.59;99703.41;1714172;82;28506;-78
2020/12/13 04:34:36;;;;;;;27.10;14.73;;;;;;;4.11;86.58;99697.70;1697681;82;21542;-79
2020/12/13 04:37:02;;;;;;;22.87;13.83;;;;;;;4.07;86.67;99700.69;1693499;81;21167;-78
2020/12/13 04:39:28;;;;;;;23.77;13.20;;;;;;;4.05;86.74;99702.60;1696828;82;26898;-78
2020/12/13 04:41:54;;;;;;;26.20;14.07;;;;;;;4.04;86.70;99700.94;1686589;82;22868;-78
2020/12/13 04:44:19;;;;;;;22.50;14.25;;;;;;;4.07;86.73;99705.91;1687711;83;28342;-77
2020/12/13 04:46:46;;;;;;;23.87;14.18;;;;;;;4.00;86.81;99700.37;1701015;82;26733;-77
2020/12/13 04:49:13;;;;;;;22.37;13.48;;;;;;;3.95;86.96;99700.74;1684826;82;21339;-76
2020/12/13 04:51:41;;;;;;;26.57;13.75;;;;;;;3.93;87.18;99701.81;1695280;82;21231;-76
2020/12/13 04:54:07;;;;;;;23.95;14.50;;;;;;;3.95;87.12;99698.62;1705313;82;21431;-76
2020/12/13 04:56:35;;;;;;;24.55;13.68;;;;;;;3.99;86.91;99701.31;1685498;82;28360;-76
2020/12/13 04:59:05;;;;;;;21.77;13.05;;;;;;;4.04;86.83;99700.48;1690647;82;21588;-76
2020/12/13 05:01:31;;;;;;;26.20;14.50;;;;;;;4.06;86.72;99705.58;1704248;82;21229;-76
2020/12/13 05:04:01;;;;;;;22.32;13.25;;;;;;;4.10;86.64;99709.13;1688095;82;21248;-76
2020/12/13 05:06:30;;;;;;;27.15;14.25;;;;;;;4.17;86.33;99709.44;1699289;83;21144;-76
2020/12/13 05:08:56;;;;;;;23.00;13.83;;;;;;;4.19;86.20;99711.44;1695254;82;21319;-76
2020/12/13 05:11:21;;;;;;;24.32;14.00;;;;;;;4.24;85.99;99704.08;1705980;81;26825;-76
2020/12/13 05:13:47;;;;;;;25.23;13.70;;;;;;;4.24;85.81;99707.99;1688984;82;21373;-76
2020/12/13 05:16:13;;;;;;;20.47;13.03;;;;;;;4.28;85.64;99709.38;1700055;82;25490;-77
2020/12/13 05:18:39;;;;;;;23.10;14.10;;;;;;;4.24;85.54;99714.53;1689810;82;23849;-77
2020/12/13 05:21:05;;;;;;;22.55;13.32;;;;;;;4.23;85.54;99718.57;1688169;82;21224;-78
2020/12/13 05:23:32;;;;;;;19.55;12.95;;;;;;;4.23;85.71;99712.05;1704245;82;26772;-75
2020/12/13 05:25:58;;;;;;;21.57;13.15;;;;;;;4.22;85.71;99717.72;1700028;83;22817;-75
2020/12/13 05:28:24;;;;;;;22.13;13.23;;;;;;;4.14;85.72;99717.05;1703121;81;24989;-78
2020/12/13 05:30:50;;;;;;;18.55;12.13;;;;;;;4.10;85.57;99722.64;1654062;84;21291;-76
2020/12/13 05:36:04;;;;;;;21.75;13.03;;;;;;;4.02;85.69;99721.96;1683156;82;21212;-77
2020/12/13 05:38:37;;;;;;;19.50;12.85;;;;;;;3.99;85.63;99724.00;1694944;82;21220;-78
2020/12/13 05:41:08;;;;;;;21.62;13.22;;;;;;;4.08;85.80;99725.88;1708185;81;21228;-77
2020/12/13 05:43:39;;;;;;;26.27;13.50;;;;;;;4.05;85.88;99722.20;1681258;83;21216;-78
2020/12/13 05:53:37;;;;;;;26.57;15.37;;;;;;;4.12;85.54;99737.74;1690704;82;27779;-77
2020/12/13 05:56:06;;;;;;;24.27;15.17;;;;;;;4.06;85.57;99742.16;1687838;82;23749;-78
2020/12/13 05:58:31;;;;;;;27.25;15.40;;;;;;;4.07;85.73;99742.03;1708328;82;21155;-78
2020/12/13 06:00:59;;;;;;;26.15;15.32;;;;;;;4.14;85.71;99744.48;1698934;82;26886;-78
2020/12/13 06:03:33;;;;;;;;;;;;;;;4.15;85.67;99734.87;1691011;82;21569;-78
2020/12/13 06:06:07;;;;;;;29.32;16.27;;;;;;;4.06;85.88;99735.14;1684512;82;20233;-78
2020/12/13 06:08:56;;;;;;;33.88;18.10;;;;;;;4.08;85.84;99742.86;1698606;82;21173;-78
2020/12/13 06:11:22;;;;;;;36.28;19.32;;;;;;;4.01;85.88;99742.53;1699283;82;21188;-78
2020/12/13 06:13:52;;;;;;;34.78;19.87;;;;;;;3.98;85.80;99745.84;1691852;82;26769;-77
2020/12/13 06:16:18;;;;;;;37.58;21.35;;;;;;;3.96;85.55;99745.97;1690217;82;22032;-79
2020/12/13 06:18:44;;;;;;;39.23;21.90;;;;;;;3.88;85.78;99748.38;1693750;82;25995;-77
2020/12/13 06:21:09;;;;;;;40.03;24.00;;;;;;;3.91;85.55;99746.34;1696267;82;24722;-77
2020/12/13 06:23:35;;;;;;;43.73;23.32;;;;;;;3.93;85.56;99751.44;1689615;83;28480;-78
2020/12/13 06:26:02;;;;;;;41.75;24.43;;;;;;;3.91;85.45;99758.09;1680490;82;26924;-77
2020/12/13 06:28:28;;;;;;;48.42;25.82;;;;;;;3.94;85.69;99754.42;1695908;81;21352;-77
2020/12/13 06:30:53;;;;;;;41.87;24.23;;;;;;;4.02;85.75;99765.07;1693377;82;25483;-77
2020/12/13 06:33:19;;;;;;;49.03;24.73;;;;;;;4.12;85.68;99771.71;1700978;81;22832;-79
2020/12/13 06:35:45;;;;;;;50.67;25.50;;;;;;;4.16;85.33;99769.19;1681554;82;21216;-77
2020/12/13 06:38:16;;;;;;;46.80;26.20;;;;;;;4.20;85.19;99768.48;1677881;84;26931;-79
2020/12/13 06:40:42;;;;;;;55.88;26.75;;;;;;;4.20;84.91;99771.91;1704471;82;21431;-78
2020/12/13 06:43:08;;;;;;;54.23;27.70;;;;;;;4.12;84.92;99776.94;1690428;83;25626;-78
2020/12/13 06:45:34;;;;;;;57.30;28.10;;;;;;;4.14;85.09;99773.72;1701044;82;21308;-78
2020/12/13 06:48:00;;;;;;;57.23;27.52;;;;;;;4.16;84.93;99780.95;1686809;81;28872;-78
2020/12/13 06:50:26;;;;;;;62.33;29.60;;;;;;;4.09;84.87;99785.02;1700430;82;27386;-77
2020/12/13 06:52:53;;;;;;;58.08;29.60;;;;;;;4.07;84.88;99788.22;1686574;82;21607;-79
2020/12/13 06:55:20;;;;;;;67.22;29.55;;;;;;;4.06;85.05;99794.41;1693568;82;21282;-78
2020/12/13 06:57:49;;;;;;;;;;;;;;;4.04;85.12;99792.38;1692252;82;21326;-78
2020/12/13 07:00:15;;;;;;;64.60;30.37;;;;;;;3.94;85.20;99798.34;1685217;83;20652;-79
2020/12/13 07:02:56;;;;;;;63.35;31.82;;;;;;;4.01;85.18;99799.16;1704189;82;27039;-79
2020/12/13 07:05:23;;;;;;;63.25;30.25;;;;;;;4.05;85.16;99798.79;1698046;82;21332;-78
2020/12/13 07:07:53;;;;;;;63.90;30.88;;;;;;;3.99;85.21;99801.89;1676600;83;21624;-79
2020/12/13 07:10:19;;;;;;;59.50;29.37;;;;;;;4.03;85.38;99807.73;1693981;83;21719;-78
2020/12/13 07:12:51;;;;;;;62.60;31.62;;;;;;;3.99;85.27;99812.83;1681039;83;28692;-77
2020/12/13 07:15:36;;;;;;;58.48;29.23;;;;;;;4.04;85.06;99815.89;1689034;82;21160;-79
2020/12/13 07:17:59;;;;;;;52.55;28.77;;;;;;;4.00;84.69;99813.19;1678041;83;21295;-78
2020/12/13 07:20:24;;;;;;;;;;;;;;;4.05;84.90;99816.27;1693832;83;21224;-78
2020/12/13 07:22:58;;;;;;;53.48;25.48;;;;;;;4.08;84.76;99813.41;1699673;82;20303;-78
2020/12/13 07:25:24;;;;;;;52.83;26.70;;;;;;;4.05;84.71;99814.47;1668083;83;21280;-77
2020/12/13 07:27:51;;;;;;;43.75;25.27;;;;;;;4.05;84.67;99817.56;1710644;82;21232;-78
2020/12/13 07:30:17;;;;;;;49.93;24.35;;;;;;;3.99;84.29;99815.44;1691497;83;21137;-78
2020/12/13 07:32:44;;;;;;;43.42;26.15;;;;;;;4.02;84.45;99813.41;1698486;82;26068;-77
2020/12/13 07:35:14;;;;;;;45.08;25.23;;;;;;;4.08;84.43;99814.22;1690174;83;21275;-77
2020/12/13 07:37:41;;;;;;;42.93;24.92;;;;;;;4.10;84.43;99819.33;1684415;82;21212;-78
2020/12/13 07:40:14;;;;;;;44.23;25.57;;;;;;;4.12;84.20;99823.97;1693414;82;21192;-78
2020/12/13 07:42:54;;;;;;;43.28;23.98;;;;;;;4.16;84.10;99827.16;1688844;83;21192;-78
2020/12/13 07:45:20;;;;;;;43.33;25.08;;;;;;;4.17;83.76;99829.66;1668977;83;21715;-78
2020/12/13 07:48:00;;;;;;;43.55;24.95;;;;;;;4.06;84.13;99835.73;1687825;82;21246;-78
2020/12/13 07:50:19;;;;;;;43.23;24.45;;;;;;;3.95;84.30;99835.77;1698155;82;21242;-77
2020/12/13 07:52:46;;;;;;;51.30;26.93;;;;;;;3.92;84.85;99828.98;1687404;82;26886;-78
2020/12/13 07:55:12;;;;;;;43.00;23.50;;;;;;;3.99;85.11;99837.65;1691424;82;22167;-78
2020/12/13 07:57:38;;;;;;;42.62;24.20;;;;;;;4.01;84.94;99839.66;1692144;82;27424;-77
2020/12/13 08:00:08;;;;;;;47.17;24.73;;;;;;;4.08;84.92;99837.74;1705725;82;24286;-78
2020/12/13 08:02:34;;;;;;;47.62;25.15;;;;;;;4.12;84.49;99848.31;1689628;81;21168;-78
2020/12/13 08:05:00;;;;;;;43.55;25.85;;;;;;;4.14;84.37;99850.80;1694301;82;26698;-79
2020/12/13 08:07:25;;;;;;;45.60;26.07;;;;;;;4.19;84.09;99855.17;1692665;83;21492;-78
2020/12/13 08:09:59;;;;;;;47.77;25.93;;;;;;;4.21;83.85;99854.60;1692616;83;26000;-78
2020/12/13 08:12:34;;;;;;;42.60;24.35;;;;;;;4.22;83.80;99852.32;1688540;83;21113;-78
2020/12/13 08:15:00;;;;;;;46.60;24.40;;;;;;;4.09;83.76;99860.80;1701491;82;21704;-77
2020/12/13 08:17:25;;;;;;;42.33;25.65;;;;;;;4.10;83.98;99866.36;1689255;81;26828;-79
2020/12/13 08:19:57;;;;;;;45.23;25.90;;;;;;;4.12;84.31;99863.17;1686122;83;21612;-78
2020/12/13 08:22:25;;;;;;;47.15;25.85;;;;;;;4.07;84.41;99862.69;1699651;83;21232;-79
2020/12/13 08:25:00;;;;;;;47.80;27.35;;;;;;;4.10;84.68;99867.21;1688863;83;21188;-77
2020/12/13 08:27:29;;;;;;;50.73;27.35;;;;;;;4.12;84.78;99877.55;1695331;82;21110;-79
2020/12/13 08:29:57;;;;;;;50.43;26.90;;;;;;;4.22;84.75;99879.77;1697103;82;21240;-79
2020/12/13 08:32:23;;;;;;;;;;;;;;;4.26;84.64;99870.73;1684901;82;21332;-77
2020/12/13 08:34:49;;;;;;;46.70;26.20;;;;;;;4.27;84.41;99875.02;1687104;84;26411;-76
2020/12/13 08:37:23;;;;;;;57.53;27.90;;;;;;;4.32;84.33;99879.88;1692187;83;21653;-79
2020/12/13 08:39:49;;;;;;;50.30;27.27;;;;;;;4.22;84.14;99879.77;1688383;82;21208;-76
2020/12/13 08:42:25;;;;;;;48.30;28.55;;;;;;;4.21;84.26;99887.27;1699705;82;26750;-79
2020/12/13 08:44:51;;;;;;;57.00;27.20;;;;;;;4.23;84.48;99888.45;1687806;83;21256;-77
2020/12/13 08:47:18;;;;;;;50.47;29.20;;;;;;;4.23;84.40;99891.89;1698253;83;25541;-77
2020/12/13 08:49:49;;;;;;;56.20;29.80;;;;;;;4.27;84.38;99893.32;1704332;82;21223;-77
2020/12/13 08:52:29;;;;;;;55.70;30.27;;;;;;;4.33;84.32;99895.08;1704936;82;21320;-77
2020/12/13 08:54:59;;;;;;;50.33;28.12;;;;;;;4.31;84.20;99892.59;1692463;82;21864;-78
2020/12/13 08:57:29;;;;;;;48.50;28.52;;;;;;;4.33;83.90;99895.08;1690010;82;21715;-78
2020/12/13 09:00:02;;;;;;;51.92;29.35;;;;;;;4.33;83.70;99899.00;1685195;82;21271;-79
2020/12/13 09:02:28;;;;;;;45.88;28.87;;;;;;;4.34;83.38;99892.83;1680781;82;21208;-79
2020/12/13 09:04:58;;;;;;;52.60;28.85;;;;;;;4.30;83.64;99893.08;1693185;81;28810;-78
2020/12/13 09:07:31;;;;;;;46.95;28.10;;;;;;;4.32;83.60;99891.65;1685243;83;21652;-78
2020/12/13 09:09:52;;;;;;;49.55;28.80;;;;;;;4.16;83.55;99898.55;1678041;83;21155;-78
2020/12/13 09:12:20;;;;;;;52.00;29.42;;;;;;;4.04;83.69;99897.74;1682062;83;27099;-79
2020/12/13 09:14:46;;;;;;;47.50;28.90;;;;;;;4.02;84.11;99904.03;1698956;83;21239;-80
2020/12/13 09:17:12;;;;;;;56.37;28.52;;;;;;;3.94;84.20;99900.22;1704691;82;28403;-78
2020/12/13 09:19:51;;;;;;;53.75;30.37;;;;;;;3.86;84.48;99907.02;1696799;82;27420;-78
2020/12/13 09:22:21;;;;;;;53.80;29.63;;;;;;;3.80;84.92;99907.00;1697373;82;21366;-79
2020/12/13 09:24:47;;;;;;;53.85;28.83;;;;;;;3.83;84.92;99908.07;1690647;82;21181;-79
2020/12/13 09:27:23;;;;;;;55.03;30.83;;;;;;;3.77;84.69;99903.33;1689822;82;23901;-79
2020/12/13 09:29:46;;;;;;;52.90;29.85;;;;;;;3.83;84.84;99905.46;1702592;82;21707;-79
2020/12/13 09:32:12;;;;;;;50.85;28.87;;;;;;;3.79;84.44;99907.94;1692257;82;21200;-78
2020/12/13 09:34:38;;;;;;;46.77;28.38;;;;;;;3.78;84.20;99900.59;1682544;84;21895;-78
2020/12/13 09:37:10;;;;;;;49.58;28.57;;;;;;;3.75;84.30;99900.83;1700163;82;26181;-79
2020/12/13 09:39:36;;;;;;;58.48;30.60;;;;;;;3.76;84.17;99902.50;1688521;82;21247;-78
2020/12/13 09:42:03;;;;;;;54.38;31.02;;;;;;;3.54;84.90;99895.49;1699496;82;21232;-79
2020/12/13 09:44:29;;;;;;;;;;;;;;;3.54;85.37;99899.41;1701389;82;21191;-80
2020/12/13 09:46:55;;;;;;;52.38;27.05;;;;;;;3.63;85.03;99893.94;1706517;82;21188;-79
2020/12/13 09:49:21;;;;;;;49.70;27.80;;;;;;;3.57;84.71;99895.26;1694168;81;21215;-78
2020/12/13 09:51:48;;;;;;;51.25;28.45;;;;;;;3.58;84.50;99896.08;1691440;82;21666;-83
2020/12/13 09:54:14;;;;;;;52.00;31.73;;;;;;;3.62;84.62;99899.28;1697384;81;21243;-78
2020/12/13 09:56:39;;;;;;;56.30;31.48;;;;;;;3.61;84.56;99905.47;1697879;82;26670;-75
2020/12/13 09:59:05;;;;;;;55.57;31.17;;;;;;;3.61;84.27;99906.77;1702332;82;22391;-76
2020/12/13 10:01:31;;;;;;;56.80;31.73;;;;;;;3.67;84.24;99907.61;1698163;82;25483;-76
2020/12/13 10:03:57;;;;;;;55.23;31.60;;;;;;;3.72;84.12;99901.55;1699646;82;21159;-76
2020/12/13 10:09:06;;;;;;;60.10;34.30;;;;;;;3.65;83.76;99901.20;1695647;82;21179;-77
2020/12/13 10:11:31;;;;;;;65.08;35.28;;;;;;;3.65;83.60;99899.89;1693349;82;21089;-77
2020/12/13 10:13:57;;;;;;;67.37;36.25;;;;;;;3.69;83.97;99896.56;1687661;83;21140;-75
2020/12/13 10:16:24;;;;;;;57.00;33.53;;;;;;;3.72;84.00;99897.63;1703359;82;21992;-75
2020/12/13 10:18:50;;;;;;;63.52;33.38;;;;;;;3.70;83.97;99899.54;1693514;82;21212;-77
2020/12/13 10:21:26;;;;;;;55.60;32.93;;;;;;;3.82;83.68;99905.09;1689441;83;26902;-75
2020/12/13 10:23:52;;;;;;;59.50;30.60;;;;;;;3.72;82.77;99896.33;1687666;82;21403;-76
2020/12/13 10:26:28;;;;;;;51.30;32.30;;;;;;;3.80;83.08;99897.86;1693296;82;22256;-77
2020/12/13 10:28:54;;;;;;;53.02;30.92;;;;;;;3.88;82.93;99898.09;1693412;82;21684;-75
2020/12/13 10:31:26;;;;;;;59.43;32.53;;;;;;;3.89;82.43;99893.72;1685683;82;21561;-75
2020/12/13 10:33:52;;;;;;;55.17;32.53;;;;;;;3.81;82.10;99896.92;1704394;82;21503;-77
2020/12/13 10:36:18;;;;;;;54.55;33.10;;;;;;;3.71;82.55;99890.73;1697265;82;21148;-76
2020/12/13 10:38:44;;;;;;;55.70;32.47;;;;;;;3.63;82.75;99899.64;1704282;82;25766;-82
2020/12/13 10:41:10;;;;;;;57.67;33.93;;;;;;;3.61;82.86;99892.41;1700574;82;22797;-76
2020/12/13 10:43:36;;;;;;;55.63;33.08;;;;;;;3.41;82.79;99894.75;1710917;82;28418;-75
2020/12/13 10:46:05;;;;;;;61.33;33.42;;;;;;;3.46;83.42;99897.84;1699828;82;21196;-77
2020/12/13 10:48:30;;;;;;;55.17;33.23;;;;;;;3.28;83.34;99884.88;1698522;82;21895;-76
2020/12/13 10:50:56;;;;;;;57.25;34.23;;;;;;;3.45;83.64;99897.50;1692869;81;26508;-77
2020/12/13 10:53:22;;;;;;;58.60;33.15;;;;;;;3.58;83.69;99889.06;1694859;82;24430;-78
2020/12/13 10:55:48;;;;;;;59.60;33.60;;;;;;;3.63;83.17;99885.28;1690554;83;21263;-77
2020/12/13 10:58:14;;;;;;;60.88;34.90;;;;;;;3.63;83.17;99887.89;1690837;82;26728;-78
2020/12/13 11:00:39;;;;;;;56.40;35.80;;;;;;;3.62;83.50;99883.61;1694731;82;21339;-78
2020/12/13 11:03:05;;;;;;;60.63;35.00;;;;;;;3.59;83.57;99885.52;1703367;81;25475;-77
2020/12/13 11:05:31;;;;;;;61.57;35.30;;;;;;;3.70;83.48;99886.48;1690683;82;21057;-80
2020/12/13 11:07:57;;;;;;;56.48;34.33;;;;;;;3.72;83.17;99883.27;1700863;82;29671;-76
2020/12/13 11:10:22;;;;;;;57.60;36.08;;;;;;;3.81;82.94;99882.55;1678592;82;27087;-79
2020/12/13 11:12:48;;;;;;;58.17;35.65;;;;;;;3.91;82.75;99888.70;1677819;84;21370;-77
2020/12/13 11:15:14;;;;;;;59.17;36.47;;;;;;;3.91;82.37;99884.79;1694746;81;26584;-79
2020/12/13 11:17:39;;;;;;;60.13;37.27;;;;;;;3.92;82.18;99886.46;1696676;81;25782;-76
2020/12/13 11:20:05;;;;;;;64.65;37.35;;;;;;;3.82;81.86;99885.50;1683816;82;28504;-75
2020/12/13 11:22:31;;;;;;;58.90;36.63;;;;;;;3.81;82.15;99889.09;1693971;82;26900;-75
2020/12/13 11:24:57;;;;;;;69.58;38.08;;;;;;;3.80;81.93;99886.11;1691545;82;21256;-75
2020/12/13 11:27:23;;;;;;;61.60;37.70;;;;;;;3.85;81.96;99882.66;1685688;82;26644;-75
2020/12/13 11:29:49;;;;;;;63.33;38.00;;;;;;;3.80;82.00;99881.38;1704685;82;22265;-76
2020/12/13 11:32:14;;;;;;;60.50;38.15;;;;;;;3.72;82.53;99885.39;1699603;82;28501;-77
2020/12/13 11:34:40;;;;;;;67.80;39.18;;;;;;;3.77;82.60;99888.47;1698367;82;27109;-80
2020/12/13 11:37:06;;;;;;;69.55;39.30;;;;;;;3.78;82.45;99895.37;1684708;81;21455;-78
2020/12/13 11:39:34;;;;;;;64.05;41.35;;;;;;;3.87;82.31;99892.98;1697743;82;21237;-76
2020/12/13 11:42:00;;;;;;;69.03;40.48;;;;;;;3.89;82.01;99897.15;1686354;83;21300;-78